SHT21A EGLL-EGJB
Flight info
| Callsign | SHT21A |
|---|---|
| Flight time | 0h 30m |
| Altitude | 20000 |
| Route | GOGSI N621 SAM N63 LELNA |
| Aircraft | A320/M-SDE3FGHIRWY/LB1 |
Departure
| Time | 2026-05-01 14:36 |
|---|---|
| Airport | London Heathrow Airport (EGLL) |
Arrival
| Time | 2026-05-01 15:06 |
|---|---|
| Airport | Guernsey Airport (EGJB) |
| Time | Latitude | Longitude | Altitude | Speed | Heading |
|---|---|---|---|---|---|
| 2026-05-01 14:18 | 51.46851 | -0.47102 | 87 ft | 0 kts | 360° |
| 2026-05-01 14:25 | 51.46846 | -0.47102 | 91 ft | 2 kts | 0° |
| 2026-05-01 14:25 | 51.46826 | -0.47103 | 91 ft | 3 kts | 5° |
| 2026-05-01 14:25 | 51.46806 | -0.47107 | 90 ft | 3 kts | 10° |
| 2026-05-01 14:25 | 51.46786 | -0.47114 | 88 ft | 3 kts | 17° |
| 2026-05-01 14:26 | 51.46767 | -0.47125 | 89 ft | 3 kts | 29° |
| 2026-05-01 14:26 | 51.46746 | -0.47160 | 89 ft | 1 kts | 89° |
| 2026-05-01 14:26 | 51.46746 | -0.47161 | 89 ft | 0 kts | 90° |
| 2026-05-01 14:28 | 51.46746 | -0.47126 | 90 ft | 11 kts | 88° |
| 2026-05-01 14:28 | 51.46746 | -0.46936 | 87 ft | 19 kts | 88° |
| 2026-05-01 14:29 | 51.46748 | -0.46710 | 88 ft | 21 kts | 90° |
| 2026-05-01 14:29 | 51.46747 | -0.46461 | 89 ft | 23 kts | 90° |
| 2026-05-01 14:30 | 51.46748 | -0.45577 | 87 ft | 29 kts | 90° |
| 2026-05-01 14:30 | 51.46750 | -0.45238 | 87 ft | 31 kts | 90° |
| 2026-05-01 14:30 | 51.46751 | -0.44917 | 87 ft | 24 kts | 90° |
| 2026-05-01 14:31 | 51.46752 | -0.44463 | 87 ft | 22 kts | 90° |
| 2026-05-01 14:31 | 51.46753 | -0.44219 | 87 ft | 18 kts | 89° |
| 2026-05-01 14:31 | 51.46753 | -0.44177 | 87 ft | 0 kts | 89° |
| 2026-05-01 14:31 | 51.46754 | -0.44168 | 87 ft | 3 kts | 89° |
| 2026-05-01 14:32 | 51.46766 | -0.44042 | 89 ft | 18 kts | 77° |
| 2026-05-01 14:32 | 51.46752 | -0.43851 | 89 ft | 16 kts | 135° |
| 2026-05-01 14:32 | 51.46643 | -0.43831 | 87 ft | 17 kts | 179° |
| 2026-05-01 14:32 | 51.46595 | -0.43831 | 86 ft | 0 kts | 179° |
| 2026-05-01 14:33 | 51.46546 | -0.43832 | 85 ft | 11 kts | 186° |
| 2026-05-01 14:34 | 51.46493 | -0.43945 | 86 ft | 15 kts | 268° |
| 2026-05-01 14:34 | 51.46493 | -0.43967 | 86 ft | 0 kts | 268° |
| 2026-05-01 14:35 | 51.46493 | -0.43969 | 86 ft | 1 kts | 268° |
| 2026-05-01 14:35 | 51.46492 | -0.44242 | 87 ft | 59 kts | 269° |
| 2026-05-01 14:35 | 51.46489 | -0.45241 | 88 ft | 118 kts | 269° |
| 2026-05-01 14:35 | 51.46484 | -0.46804 | 114 ft | 159 kts | 264° |
| 2026-05-01 14:36 | 51.46476 | -0.48557 | 704 ft | 158 kts | 264° |
| 2026-05-01 14:36 | 51.46450 | -0.50361 | 1273 ft | 166 kts | 264° |
| 2026-05-01 14:36 | 51.46418 | -0.52290 | 1709 ft | 181 kts | 264° |
| 2026-05-01 14:36 | 51.46393 | -0.54370 | 2154 ft | 195 kts | 265° |
| 2026-05-01 14:37 | 51.46361 | -0.56668 | 2505 ft | 218 kts | 265° |
| 2026-05-01 14:37 | 51.46328 | -0.59232 | 2924 ft | 242 kts | 265° |
| 2026-05-01 14:37 | 51.46264 | -0.62034 | 3585 ft | 255 kts | 258° |
| 2026-05-01 14:37 | 51.45894 | -0.64843 | 4438 ft | 260 kts | 253° |
| 2026-05-01 14:38 | 51.45514 | -0.67702 | 5341 ft | 266 kts | 261° |
| 2026-05-01 14:38 | 51.45450 | -0.70692 | 6230 ft | 270 kts | 265° |
| 2026-05-01 14:38 | 51.45415 | -0.73730 | 7105 ft | 274 kts | 265° |
| 2026-05-01 14:38 | 51.45282 | -0.76778 | 7942 ft | 275 kts | 253° |
| 2026-05-01 14:39 | 51.44513 | -0.79541 | 8761 ft | 272 kts | 230° |
| 2026-05-01 14:39 | 51.43166 | -0.81636 | 9607 ft | 271 kts | 217° |
| 2026-05-01 14:39 | 51.41703 | -0.83559 | 10398 ft | 275 kts | 217° |
| 2026-05-01 14:39 | 51.40177 | -0.85547 | 10632 ft | 298 kts | 217° |
| 2026-05-01 14:40 | 51.38488 | -0.87740 | 10877 ft | 318 kts | 217° |
| 2026-05-01 14:40 | 51.36771 | -0.89977 | 11439 ft | 325 kts | 217° |
| 2026-05-01 14:40 | 51.35008 | -0.92286 | 12106 ft | 329 kts | 217° |
| 2026-05-01 14:40 | 51.33229 | -0.94620 | 12781 ft | 333 kts | 217° |
| 2026-05-01 14:41 | 51.31427 | -0.96984 | 13485 ft | 337 kts | 217° |
| 2026-05-01 14:41 | 51.29607 | -0.99371 | 14139 ft | 340 kts | 217° |
| 2026-05-01 14:41 | 51.27665 | -1.01546 | 14735 ft | 342 kts | 211° |
| 2026-05-01 14:41 | 51.25662 | -1.03618 | 15344 ft | 345 kts | 211° |
| 2026-05-01 14:42 | 51.23638 | -1.05704 | 15921 ft | 348 kts | 211° |
| 2026-05-01 14:42 | 51.21594 | -1.07804 | 16514 ft | 351 kts | 211° |
| 2026-05-01 14:42 | 51.19581 | -1.09874 | 17091 ft | 354 kts | 211° |
| 2026-05-01 14:42 | 51.17498 | -1.12016 | 17688 ft | 357 kts | 211° |
| 2026-05-01 14:43 | 51.15400 | -1.14177 | 18295 ft | 361 kts | 211° |
| 2026-05-01 14:43 | 51.13283 | -1.16354 | 18846 ft | 364 kts | 211° |
| 2026-05-01 14:43 | 51.11144 | -1.18547 | 19398 ft | 367 kts | 211° |
| 2026-05-01 14:43 | 51.08982 | -1.20759 | 19951 ft | 370 kts | 211° |
| 2026-05-01 14:44 | 51.06813 | -1.22975 | 20136 ft | 371 kts | 210° |
| 2026-05-01 14:44 | 51.02370 | -1.27505 | 20192 ft | 385 kts | 211° |
| 2026-05-01 14:44 | 51.00117 | -1.29806 | 20195 ft | 386 kts | 211° |
| 2026-05-01 14:45 | 50.97888 | -1.32084 | 20191 ft | 386 kts | 211° |
| 2026-05-01 14:45 | 50.93218 | -1.36356 | 20192 ft | 385 kts | 205° |
| 2026-05-01 14:45 | 50.90827 | -1.38270 | 20192 ft | 385 kts | 205° |
| 2026-05-01 14:46 | 50.88463 | -1.40156 | 20192 ft | 385 kts | 205° |
| 2026-05-01 14:46 | 50.83673 | -1.43973 | 20191 ft | 386 kts | 205° |
| 2026-05-01 14:46 | 50.81275 | -1.45883 | 20190 ft | 386 kts | 205° |
| 2026-05-01 14:47 | 50.78882 | -1.47789 | 20189 ft | 386 kts | 205° |
| 2026-05-01 14:47 | 50.76480 | -1.49694 | 20191 ft | 386 kts | 205° |
| 2026-05-01 14:47 | 50.74075 | -1.51600 | 20190 ft | 386 kts | 205° |
| 2026-05-01 14:48 | 50.69275 | -1.55395 | 20191 ft | 386 kts | 205° |
| 2026-05-01 14:48 | 50.66872 | -1.57297 | 20190 ft | 386 kts | 205° |
| 2026-05-01 14:48 | 50.62062 | -1.61097 | 20189 ft | 387 kts | 205° |
| 2026-05-01 14:49 | 50.57249 | -1.64883 | 20194 ft | 387 kts | 205° |
| 2026-05-01 14:49 | 50.52429 | -1.68669 | 20197 ft | 387 kts | 205° |
| 2026-05-01 14:50 | 50.49236 | -1.71176 | 20201 ft | 387 kts | 205° |
| 2026-05-01 14:50 | 50.42818 | -1.76203 | 20211 ft | 387 kts | 205° |
| 2026-05-01 14:51 | 50.40410 | -1.78085 | 20212 ft | 387 kts | 205° |
| 2026-05-01 14:51 | 50.35589 | -1.81845 | 20096 ft | 382 kts | 205° |
| 2026-05-01 14:52 | 50.30944 | -1.85455 | 19618 ft | 363 kts | 205° |
| 2026-05-01 14:52 | 50.29457 | -1.86607 | 19462 ft | 358 kts | 205° |
| 2026-05-01 14:52 | 50.25026 | -1.90035 | 18989 ft | 354 kts | 205° |
| 2026-05-01 14:53 | 50.22823 | -1.91736 | 18751 ft | 353 kts | 205° |
| 2026-05-01 14:53 | 50.20626 | -1.93434 | 18523 ft | 352 kts | 205° |
| 2026-05-01 14:53 | 50.18435 | -1.95127 | 18256 ft | 350 kts | 205° |
| 2026-05-01 14:53 | 50.16255 | -1.96809 | 17975 ft | 346 kts | 205° |
| 2026-05-01 14:54 | 50.14111 | -1.98464 | 17542 ft | 342 kts | 205° |
| 2026-05-01 14:54 | 50.11990 | -2.00097 | 17075 ft | 339 kts | 205° |
| 2026-05-01 14:54 | 50.09888 | -2.01713 | 16625 ft | 336 kts | 205° |
| 2026-05-01 14:54 | 50.07801 | -2.03319 | 16168 ft | 333 kts | 205° |
| 2026-05-01 14:55 | 50.05730 | -2.04915 | 15725 ft | 331 kts | 205° |
| 2026-05-01 14:55 | 50.03671 | -2.06495 | 15267 ft | 329 kts | 205° |
| 2026-05-01 14:55 | 50.01621 | -2.08061 | 14819 ft | 327 kts | 205° |
| 2026-05-01 14:55 | 49.99585 | -2.09616 | 14354 ft | 326 kts | 205° |
| 2026-05-01 14:56 | 49.97589 | -2.11298 | 13859 ft | 326 kts | 211° |
| 2026-05-01 14:56 | 49.95697 | -2.13238 | 13365 ft | 324 kts | 212° |
| 2026-05-01 14:56 | 49.93821 | -2.15154 | 12882 ft | 322 kts | 212° |
| 2026-05-01 14:56 | 49.91957 | -2.17052 | 12423 ft | 319 kts | 212° |
| 2026-05-01 14:57 | 49.90130 | -2.18910 | 11966 ft | 317 kts | 212° |
| 2026-05-01 14:57 | 49.86432 | -2.22652 | 11042 ft | 314 kts | 212° |
| 2026-05-01 14:57 | 49.84633 | -2.24467 | 10641 ft | 311 kts | 212° |
| 2026-05-01 14:58 | 49.82853 | -2.26245 | 10515 ft | 298 kts | 208° |
| 2026-05-01 14:58 | 49.80995 | -2.27354 | 10301 ft | 278 kts | 192° |
| 2026-05-01 14:58 | 49.79124 | -2.27957 | 9866 ft | 269 kts | 191° |
| 2026-05-01 14:58 | 49.77302 | -2.28520 | 9701 ft | 270 kts | 191° |
| 2026-05-01 14:59 | 49.75449 | -2.29083 | 9229 ft | 273 kts | 191° |
| 2026-05-01 14:59 | 49.73581 | -2.29651 | 8897 ft | 271 kts | 192° |
| 2026-05-01 14:59 | 49.71718 | -2.30219 | 8426 ft | 274 kts | 192° |
| 2026-05-01 14:59 | 49.69866 | -2.30786 | 8151 ft | 270 kts | 192° |
| 2026-05-01 15:00 | 49.66205 | -2.31915 | 7376 ft | 265 kts | 192° |
| 2026-05-01 15:00 | 49.64396 | -2.32470 | 6758 ft | 264 kts | 193° |
| 2026-05-01 15:00 | 49.62599 | -2.33021 | 6141 ft | 262 kts | 193° |
| 2026-05-01 15:01 | 49.60812 | -2.33566 | 5538 ft | 260 kts | 193° |
| 2026-05-01 15:01 | 49.59044 | -2.34109 | 4955 ft | 258 kts | 193° |
| 2026-05-01 15:01 | 49.57303 | -2.34644 | 4538 ft | 249 kts | 193° |
| 2026-05-01 15:01 | 49.55668 | -2.35144 | 4389 ft | 230 kts | 193° |
| 2026-05-01 15:02 | 49.54075 | -2.35632 | 3831 ft | 238 kts | 193° |
| 2026-05-01 15:02 | 49.53003 | -2.35961 | 3620 ft | 238 kts | 193° |
| 2026-05-01 15:02 | 49.50893 | -2.36606 | 3411 ft | 227 kts | 193° |
| 2026-05-01 15:02 | 49.49371 | -2.37070 | 3283 ft | 218 kts | 193° |
| 2026-05-01 15:03 | 49.47908 | -2.37514 | 3194 ft | 212 kts | 194° |
| 2026-05-01 15:03 | 49.46486 | -2.38061 | 3008 ft | 208 kts | 205° |
| 2026-05-01 15:03 | 49.45296 | -2.39203 | 2866 ft | 197 kts | 224° |
| 2026-05-01 15:03 | 49.44457 | -2.40798 | 2705 ft | 189 kts | 242° |
| 2026-05-01 15:04 | 49.44010 | -2.42656 | 2497 ft | 185 kts | 259° |
| 2026-05-01 15:04 | 49.43912 | -2.44618 | 2267 ft | 183 kts | 267° |
| 2026-05-01 15:04 | 49.43862 | -2.46545 | 2053 ft | 178 kts | 268° |
| 2026-05-01 15:04 | 49.43813 | -2.48433 | 1785 ft | 174 kts | 268° |
| 2026-05-01 15:05 | 49.43763 | -2.50292 | 1544 ft | 174 kts | 268° |
| 2026-05-01 15:05 | 49.43715 | -2.52106 | 1304 ft | 165 kts | 268° |
| 2026-05-01 15:05 | 49.43669 | -2.53814 | 1085 ft | 156 kts | 268° |
| 2026-05-01 15:05 | 49.43628 | -2.55462 | 858 ft | 152 kts | 268° |
| 2026-05-01 15:06 | 49.43584 | -2.57029 | 688 ft | 146 kts | 268° |
| 2026-05-01 15:06 | 49.43540 | -2.58534 | 476 ft | 138 kts | 269° |
| 2026-05-01 15:06 | 49.43504 | -2.59989 | 344 ft | 128 kts | 268° |
| 2026-05-01 15:06 | 49.43477 | -2.60927 | 322 ft | 45 kts | 267° |
| 2026-05-01 15:07 | 49.43467 | -2.61244 | 314 ft | 15 kts | 265° |
| 2026-05-01 15:07 | 49.43409 | -2.61332 | 311 ft | 16 kts | 148° |
| 2026-05-01 15:07 | 49.43359 | -2.61192 | 316 ft | 15 kts | 92° |
| 2026-05-01 15:07 | 49.43363 | -2.61036 | 320 ft | 14 kts | 88° |
| 2026-05-01 15:08 | 49.43361 | -2.60887 | 323 ft | 14 kts | 99° |
| 2026-05-01 15:08 | 49.43344 | -2.60746 | 327 ft | 13 kts | 102° |
| 2026-05-01 15:08 | 49.43330 | -2.60640 | 329 ft | 10 kts | 101° |
| 2026-05-01 15:08 | 49.43326 | -2.60542 | 328 ft | 9 kts | 88° |
| 2026-05-01 15:09 | 49.43328 | -2.60451 | 333 ft | 8 kts | 88° |
| 2026-05-01 15:09 | 49.43329 | -2.60433 | 332 ft | 0 kts | 87° |
| 2026-05-01 15:12 | 49.43329 | -2.60414 | 334 ft | 3 kts | 87° |
| 2026-05-01 15:12 | 49.43331 | -2.60341 | 335 ft | 12 kts | 87° |
| 2026-05-01 15:13 | 49.43343 | -2.59928 | 344 ft | 15 kts | 87° |
| 2026-05-01 15:14 | 49.43346 | -2.59691 | 350 ft | 5 kts | 185° |
| 2026-05-01 15:14 | 49.43303 | -2.59690 | 344 ft | 7 kts | 178° |
| 2026-05-01 15:14 | 49.43257 | -2.59688 | 344 ft | 0 kts | 178° |